UUDD

Moscow/Domodedovo International Airport

Airport
ICAO code
UUDD
IATA Code
DME
Summary
ICAO Region
EUR
ICAO Territory
Location

Domodedovo, Moscow Oblast,

Serving
Moscow
Elevation
588 ft
Coordinates
55° 24' 31" N , 37° 54' 12" E
KCC
Dfb
Metar
Observation
UUDD 171400Z 09004MPS 060V120 CAVOK 29/08 Q1018 R88/CLRD60 NOSIG
Station
Moscow / Domodedovo
Date/Time
2022-08-17 14:00:00
Wind direction
90°
Lowest cloud amount
clouds and visibility OK
Temperature
29°C
Dew point
8°C
Humidity
26%
QNH
1018 hPa
Weather condition
n/a

Description

International airport serving Moscow, Russia.

Climatology

Humid Continental climate (Köppen climate classification Dfb) - Variable weather patterns and a large seasonal temperature variance. Summers are often warm and humid with frequent thunderstorms and winters can be very cold with frequent snowfall and persistent snow cover.

Runways

Designator Length Width Surface Rops
14C/32C 2600 45 CON Yes/Yes
14R/32L 3500 70 CON Yes/Yes
14L/32R 3794 53 CON Yes/Yes

Airport map

Aerial View

SKYbrary Partners:

Safety knowledge contributed by: